createdAt,value
2022-11-25T00:00:31.661Z,12.3
2022-11-25T00:01:40.242Z,14.4
2022-11-25T00:02:48.716Z,14.4
2022-11-25T00:03:56.941Z,14.4
2022-11-25T00:05:05.480Z,11.4
2022-11-25T00:06:13.833Z,11.4
2022-11-25T00:07:22.260Z,11.4
2022-11-25T00:08:30.772Z,13.7
2022-11-25T00:09:39.145Z,13.7
2022-11-25T00:10:47.476Z,13.7
2022-11-25T00:11:56.018Z,9.5
2022-11-25T00:13:04.367Z,9.5
2022-11-25T00:14:12.754Z,9.5
2022-11-25T00:15:21.327Z,12.1
2022-11-25T00:16:29.684Z,12.1
2022-11-25T00:17:38.004Z,12.1
2022-11-25T00:18:46.571Z,9.3
2022-11-25T00:19:54.926Z,9.3
2022-11-25T00:21:03.266Z,9.3
2022-11-25T00:22:11.833Z,13.3
2022-11-25T00:23:20.213Z,13.3
2022-11-25T00:24:28.520Z,13.3
2022-11-25T00:25:37.095Z,12.7
2022-11-25T00:26:45.443Z,12.7
2022-11-25T00:27:53.805Z,12.7
2022-11-25T00:29:02.349Z,10.3
2022-11-25T00:30:10.680Z,10.3
2022-11-25T00:31:19.090Z,10.3
2022-11-25T00:32:27.591Z,9.1
2022-11-25T00:33:35.923Z,9.1
2022-11-25T00:34:44.260Z,9.1
2022-11-25T00:35:52.832Z,7.5
2022-11-25T00:37:01.158Z,7.5
2022-11-25T00:38:09.508Z,7.5
2022-11-25T00:39:18.146Z,6.5
2022-11-25T00:40:26.405Z,6.5
2022-11-25T00:41:34.731Z,6.5
2022-11-25T00:42:43.294Z,7.9
2022-11-25T00:43:51.620Z,7.9
2022-11-25T00:44:59.970Z,7.9
2022-11-25T00:46:08.571Z,10.7
2022-11-25T00:47:16.862Z,10.7
2022-11-25T00:48:25.257Z,10.7
2022-11-25T00:49:33.808Z,8.7
2022-11-25T00:50:42.164Z,8.7
2022-11-25T00:51:50.493Z,8.7
2022-11-25T00:52:59.051Z,14.2
2022-11-25T00:54:07.421Z,14.2
2022-11-25T00:55:15.772Z,14.2
2022-11-25T00:56:24.287Z,11.1
2022-11-25T00:57:32.624Z,11.1
2022-11-25T00:58:40.957Z,11.1
2022-11-25T00:59:49.493Z,11.4
2022-11-25T01:00:57.857Z,11.4
2022-11-25T01:02:06.197Z,11.4
2022-11-25T01:03:14.694Z,10.4
2022-11-25T01:04:23.034Z,10.4
2022-11-25T01:05:31.361Z,10.4
2022-11-25T01:06:39.928Z,10.9
2022-11-25T01:07:48.359Z,10.9
2022-11-25T01:08:56.651Z,10.9
2022-11-25T01:10:05.186Z,9.5
2022-11-25T01:11:13.531Z,9.5
2022-11-25T01:12:21.887Z,9.5
2022-11-25T01:13:30.427Z,11.3
2022-11-25T01:14:39.031Z,11.3
2022-11-25T01:15:47.139Z,11.3
2022-11-25T01:16:55.727Z,10
2022-11-25T01:18:04.027Z,10
2022-11-25T01:19:12.365Z,10
2022-11-25T01:20:20.901Z,13.5
2022-11-25T01:21:29.248Z,13.5
2022-11-25T01:22:37.631Z,13.5
2022-11-25T01:23:46.184Z,10.2
2022-11-25T01:24:54.549Z,10.2
2022-11-25T01:26:02.882Z,10.2
2022-11-25T01:27:11.450Z,9
2022-11-25T01:28:19.777Z,9
2022-11-25T01:29:28.135Z,9
2022-11-25T01:30:40.990Z,10.3
2022-11-25T01:31:45.069Z,10.3
2022-11-25T01:32:53.376Z,10.3
2022-11-25T01:34:01.940Z,10.7
2022-11-25T01:35:10.290Z,10.7
2022-11-25T01:36:18.626Z,10.7
2022-11-25T01:37:27.211Z,7.5
2022-11-25T01:38:35.546Z,7.5
2022-11-25T01:39:43.913Z,7.5
2022-11-25T01:40:52.496Z,10.4
2022-11-25T01:42:00.856Z,10.4
2022-11-25T01:43:09.226Z,10.4
2022-11-25T01:44:17.775Z,8.7
2022-11-25T01:45:28.597Z,8.7
2022-11-25T01:46:34.442Z,8.7
2022-11-25T01:47:43.022Z,7.6
2022-11-25T01:48:51.357Z,7.6
2022-11-25T01:49:59.728Z,7.6
2022-11-25T01:51:08.262Z,9.1
2022-11-25T01:52:16.624Z,9.1
2022-11-25T01:53:24.955Z,9.1
2022-11-25T01:54:33.707Z,8.7
2022-11-25T01:55:41.882Z,8.7
2022-11-25T01:56:50.205Z,8.7
2022-11-25T01:57:58.768Z,9.3
2022-11-25T01:59:07.125Z,9.3
2022-11-25T02:00:15.422Z,9.3
2022-11-25T02:01:23.979Z,11.9
2022-11-25T02:02:32.455Z,11.9
2022-11-25T02:03:40.643Z,11.9
2022-11-25T02:04:49.205Z,10.1
2022-11-25T02:05:57.539Z,10.1
2022-11-25T02:07:05.896Z,10.1
2022-11-25T02:08:14.441Z,10.2
2022-11-25T02:09:22.769Z,10.2
2022-11-25T02:10:31.098Z,10.2
2022-11-25T02:11:39.634Z,9.6
2022-11-25T02:12:48.011Z,9.6
2022-11-25T02:13:56.343Z,9.6
2022-11-25T02:15:04.921Z,9
2022-11-25T02:16:13.290Z,9
2022-11-25T02:17:21.592Z,9
2022-11-25T02:18:30.121Z,8.2
2022-11-25T02:19:38.526Z,8.2
2022-11-25T02:20:46.838Z,8.2
2022-11-25T02:21:55.376Z,11.1
2022-11-25T02:23:03.720Z,11.1
2022-11-25T02:24:12.047Z,11.1
2022-11-25T02:25:20.594Z,9.4
2022-11-25T02:26:28.936Z,9.4
2022-11-25T02:27:37.293Z,9.4
2022-11-25T02:28:45.828Z,10.9
2022-11-25T02:29:54.159Z,10.9
2022-11-25T02:31:02.592Z,10.9
2022-11-25T02:32:11.081Z,11.6
2022-11-25T02:33:19.449Z,11.6
2022-11-25T02:34:27.777Z,11.6
2022-11-25T02:35:36.347Z,10.1
2022-11-25T02:36:44.716Z,10.1
2022-11-25T02:37:53.056Z,10.1
2022-11-25T02:39:01.612Z,8.3
2022-11-25T02:40:09.945Z,8.3
2022-11-25T02:41:18.269Z,8.3
2022-11-25T02:42:26.827Z,11.6
2022-11-25T02:43:35.154Z,11.6
2022-11-25T02:44:43.483Z,11.6
2022-11-25T02:45:52.080Z,11.6
2022-11-25T02:47:00.377Z,11.6
2022-11-25T02:48:08.694Z,11.6
2022-11-25T02:49:17.258Z,12.8
2022-11-25T02:50:25.588Z,12.8
2022-11-25T02:51:33.959Z,12.8
2022-11-25T02:52:42.584Z,12.2
2022-11-25T02:53:50.925Z,12.2
2022-11-25T02:54:59.277Z,12.2
2022-11-25T02:56:07.852Z,11.5
2022-11-25T02:57:16.208Z,11.5
2022-11-25T02:58:24.591Z,11.5
2022-11-25T02:59:33.131Z,11.2
2022-11-25T03:00:41.522Z,11.2
2022-11-25T03:01:49.891Z,11.2
2022-11-25T03:02:58.398Z,13.2
2022-11-25T03:04:06.703Z,13.2
2022-11-25T03:05:15.032Z,13.2
2022-11-25T03:06:23.582Z,10.1
2022-11-25T03:07:32.012Z,10.1
2022-11-25T03:08:40.295Z,10.1
2022-11-25T03:09:48.828Z,10.9
2022-11-25T03:10:57.230Z,10.9
2022-11-25T03:12:05.563Z,10.9
2022-11-25T03:13:14.123Z,12
2022-11-25T03:14:22.464Z,12
2022-11-25T03:15:30.825Z,12
2022-11-25T03:16:39.438Z,11.8
2022-11-25T03:17:47.706Z,11.8
2022-11-25T03:18:56.057Z,11.8
2022-11-25T03:20:04.583Z,11.2
2022-11-25T03:21:12.932Z,11.2
2022-11-25T03:22:21.286Z,11.2
2022-11-25T03:23:29.807Z,12.1
2022-11-25T03:24:38.442Z,12.1
2022-11-25T03:25:46.508Z,12.1
2022-11-25T03:26:55.096Z,12.8
2022-11-25T03:28:03.478Z,12.8
2022-11-25T03:29:11.802Z,12.8
2022-11-25T03:30:20.345Z,11.2
2022-11-25T03:31:28.699Z,11.2
2022-11-25T03:32:37.005Z,11.2
2022-11-25T03:33:45.612Z,11.4
2022-11-25T03:34:53.981Z,11.4
2022-11-25T03:36:02.316Z,11.4
2022-11-25T03:37:10.864Z,10.7
2022-11-25T03:38:19.226Z,10.7
2022-11-25T03:39:27.566Z,10.7
2022-11-25T03:40:36.125Z,12.8
2022-11-25T03:41:44.466Z,12.8
2022-11-25T03:42:52.823Z,12.8
2022-11-25T03:44:01.358Z,13.9
2022-11-25T03:45:09.681Z,13.9
2022-11-25T03:46:18.061Z,13.9
2022-11-25T03:47:26.565Z,16.5
2022-11-25T03:48:34.897Z,16.5
2022-11-25T03:49:43.226Z,16.5
2022-11-25T03:50:51.812Z,13.9
2022-11-25T03:52:00.131Z,13.9
2022-11-25T03:53:08.468Z,13.9
2022-11-25T03:54:17.010Z,16.4
2022-11-25T03:55:25.365Z,16.4
2022-11-25T03:56:33.684Z,16.4
2022-11-25T03:57:42.247Z,13.3
2022-11-25T03:58:50.607Z,13.3
2022-11-25T03:59:58.974Z,13.3
2022-11-25T04:01:07.539Z,13.3
2022-11-25T04:02:15.921Z,13.3
2022-11-25T04:03:24.195Z,13.3
2022-11-25T04:04:32.869Z,12.4
2022-11-25T04:05:41.095Z,12.4
2022-11-25T04:06:49.454Z,12.4
2022-11-25T04:07:58.363Z,11.3
2022-11-25T04:09:06.346Z,11.3
2022-11-25T04:10:14.694Z,11.3
2022-11-25T04:11:23.260Z,11
2022-11-25T04:12:31.605Z,11
2022-11-25T04:13:39.935Z,11
2022-11-25T04:14:48.506Z,10.8
2022-11-25T04:15:56.833Z,10.8
2022-11-25T04:17:05.231Z,10.8
2022-11-25T04:18:13.723Z,7.4
2022-11-25T04:19:22.055Z,7.4
2022-11-25T04:20:30.418Z,7.4
2022-11-25T04:21:38.941Z,12.8
2022-11-25T04:22:47.368Z,12.8
2022-11-25T04:23:55.674Z,12.8
2022-11-25T04:25:04.240Z,8.3
2022-11-25T04:26:12.571Z,8.3
2022-11-25T04:27:20.945Z,8.3
2022-11-25T04:28:29.484Z,11.6
2022-11-25T04:29:37.860Z,11.6
2022-11-25T04:30:46.208Z,11.6
2022-11-25T04:31:54.759Z,10.9
2022-11-25T04:33:03.167Z,10.9
2022-11-25T04:34:11.481Z,10.9
2022-11-25T04:35:20.026Z,10.3
2022-11-25T04:36:28.405Z,10.3
2022-11-25T04:37:36.755Z,10.3
2022-11-25T04:38:45.316Z,6.9
2022-11-25T04:39:53.621Z,6.9
2022-11-25T04:41:01.991Z,6.9
2022-11-25T04:42:10.521Z,10.5
2022-11-25T04:43:18.866Z,10.5
2022-11-25T04:44:27.199Z,10.5
2022-11-25T04:45:51.805Z,9.3
2022-11-25T04:46:44.142Z,9.3
2022-11-25T04:47:52.397Z,9.3
2022-11-25T04:49:00.944Z,9.4
2022-11-25T04:50:09.286Z,9.4
2022-11-25T04:51:17.623Z,9.4
2022-11-25T04:52:26.184Z,10.5
2022-11-25T04:53:34.531Z,10.5
2022-11-25T04:54:42.885Z,10.5
2022-11-25T04:55:51.430Z,13.8
2022-11-25T04:56:59.797Z,13.8
2022-11-25T04:58:08.180Z,13.8
2022-11-25T04:59:16.723Z,11
2022-11-25T05:00:25.054Z,11
2022-11-25T05:01:33.463Z,11
2022-11-25T05:02:42.056Z,10.8
2022-11-25T05:03:54.567Z,10.8
2022-11-25T05:04:58.627Z,10.8
2022-11-25T05:06:07.164Z,9.6
2022-11-25T05:07:15.539Z,9.6
2022-11-25T05:08:23.868Z,9.6
2022-11-25T05:09:32.430Z,8.3
2022-11-25T05:10:40.780Z,8.3
2022-11-25T05:11:49.093Z,8.3
2022-11-25T05:12:57.697Z,7
2022-11-25T05:14:06.028Z,7
2022-11-25T05:15:14.360Z,7
2022-11-25T05:16:22.988Z,6.1
2022-11-25T05:17:31.305Z,6.1
2022-11-25T05:18:39.641Z,6.1
2022-11-25T05:19:48.201Z,8
2022-11-25T05:20:56.547Z,8
2022-11-25T05:22:04.881Z,8
2022-11-25T05:23:13.475Z,8
2022-11-25T05:24:21.810Z,8
2022-11-25T05:25:30.132Z,8
2022-11-25T05:26:38.705Z,10
2022-11-25T05:27:47.021Z,10
2022-11-25T05:28:55.363Z,10
2022-11-25T05:30:03.894Z,9
2022-11-25T05:31:12.275Z,9
2022-11-25T05:32:20.549Z,9
2022-11-25T05:33:29.110Z,9.2
2022-11-25T05:34:37.828Z,9.2
2022-11-25T05:35:45.772Z,9.2
2022-11-25T05:36:54.305Z,9.4
2022-11-25T05:38:02.642Z,9.4
2022-11-25T05:39:10.976Z,9.4
2022-11-25T05:40:19.512Z,7.2
2022-11-25T05:41:27.839Z,7.2
2022-11-25T05:42:36.211Z,7.2
2022-11-25T05:43:44.729Z,8.1
2022-11-25T05:44:53.054Z,8.1
2022-11-25T05:46:01.428Z,8.1
2022-11-25T05:47:09.922Z,9.1
2022-11-25T05:48:18.262Z,9.1
2022-11-25T05:49:26.618Z,9.1
2022-11-25T05:50:35.176Z,10.3
2022-11-25T05:51:43.603Z,10.3
2022-11-25T05:52:51.932Z,10.3
2022-11-25T05:54:00.510Z,7.1
2022-11-25T05:55:08.846Z,7.1
2022-11-25T05:56:17.214Z,7.1
2022-11-25T05:57:25.752Z,8.3
2022-11-25T05:58:34.109Z,8.3
2022-11-25T05:59:42.417Z,8.3
2022-11-25T06:00:50.958Z,10.5
2022-11-25T06:01:59.342Z,10.5
2022-11-25T06:03:07.753Z,10.5
2022-11-25T06:04:16.186Z,7.3
2022-11-25T06:05:24.509Z,7.3
2022-11-25T06:06:32.860Z,7.3
2022-11-25T06:07:41.484Z,9
2022-11-25T06:08:49.746Z,9
2022-11-25T06:10:02.803Z,9
2022-11-25T06:11:06.613Z,7.4
2022-11-25T06:12:14.963Z,7.4
2022-11-25T06:13:23.299Z,7.4
2022-11-25T06:14:31.884Z,10.9
2022-11-25T06:15:40.218Z,10.9
2022-11-25T06:16:48.550Z,10.9
2022-11-25T06:17:57.115Z,7.2
2022-11-25T06:19:05.464Z,7.2
2022-11-25T06:20:13.808Z,7.2
2022-11-25T06:21:22.342Z,8.2
2022-11-25T06:22:30.689Z,8.2
2022-11-25T06:23:39.014Z,8.2
2022-11-25T06:24:52.215Z,12.7
2022-11-25T06:25:55.888Z,12.7
2022-11-25T06:27:04.220Z,12.7
2022-11-25T06:28:13.571Z,9.1
2022-11-25T06:29:21.111Z,9.1
2022-11-25T06:30:29.455Z,9.1
2022-11-25T06:31:38.019Z,8.8
2022-11-25T06:32:46.321Z,8.8
2022-11-25T06:33:54.655Z,8.8
2022-11-25T06:35:03.186Z,13.3
2022-11-25T06:36:11.519Z,13.3
2022-11-25T06:37:19.849Z,13.3
2022-11-25T06:38:28.389Z,12.7
2022-11-25T06:39:36.744Z,12.7
2022-11-25T06:40:45.078Z,12.7
2022-11-25T06:41:53.641Z,8.5
2022-11-25T06:43:01.992Z,8.5
2022-11-25T06:44:10.343Z,8.5
2022-11-25T06:45:18.882Z,7.3
2022-11-25T06:46:27.311Z,7.3
2022-11-25T06:47:35.600Z,7.3
2022-11-25T06:48:44.166Z,31.5
2022-11-25T06:49:52.504Z,31.5
2022-11-25T06:51:00.826Z,31.5
2022-11-25T06:52:09.357Z,11.1
2022-11-25T06:53:21.261Z,11.1
2022-11-25T06:54:26.054Z,11.1
2022-11-25T06:55:34.612Z,33.900002
2022-11-25T06:56:42.947Z,33.900002
2022-11-25T06:57:53.266Z,33.900002
2022-11-25T06:58:59.857Z,8.9
2022-11-25T07:00:08.210Z,8.9
2022-11-25T07:01:16.600Z,8.9
2022-11-25T07:02:25.170Z,9.4
2022-11-25T07:03:33.414Z,9.4
2022-11-25T07:04:41.751Z,9.4
2022-11-25T07:05:50.313Z,9.6
2022-11-25T07:06:58.661Z,9.6
2022-11-25T07:08:07.012Z,9.6
2022-11-25T07:09:15.540Z,8.4
2022-11-25T07:10:23.873Z,8.4
2022-11-25T07:11:32.199Z,8.4
2022-11-25T07:12:40.754Z,9.1
2022-11-25T07:13:49.161Z,9.1
2022-11-25T07:14:57.521Z,9.1
2022-11-25T07:16:06.171Z,6.1
2022-11-25T07:17:14.441Z,6.1
2022-11-25T07:18:22.821Z,6.1
2022-11-25T07:19:31.325Z,10.7
2022-11-25T07:20:39.653Z,10.7
2022-11-25T07:21:47.976Z,10.7
2022-11-25T07:22:56.524Z,8.1
2022-11-25T07:24:04.892Z,8.1
2022-11-25T07:25:13.229Z,8.1
2022-11-25T07:26:21.808Z,8.4
2022-11-25T07:27:30.137Z,8.4
2022-11-25T07:28:38.500Z,8.4
2022-11-25T07:31:22.611Z,8.5
2022-11-25T07:32:08.852Z,8.5
2022-11-25T07:33:12.346Z,8.5
2022-11-25T07:34:20.664Z,8.5
2022-11-25T07:35:29.011Z,8.5
2022-11-25T07:36:37.559Z,7.9
2022-11-25T07:37:45.951Z,7.9
2022-11-25T07:38:54.290Z,7.9
2022-11-25T07:40:02.834Z,7.1
2022-11-25T07:41:11.199Z,7.1
2022-11-25T07:42:19.537Z,7.1
2022-11-25T07:43:28.105Z,7.3
2022-11-25T07:44:36.459Z,7.3
2022-11-25T07:45:44.800Z,7.3
2022-11-25T07:46:53.473Z,8.8
2022-11-25T07:48:01.766Z,8.8
2022-11-25T07:49:10.074Z,8.8
2022-11-25T07:50:18.666Z,10.8
2022-11-25T07:51:26.982Z,10.8
2022-11-25T07:52:35.353Z,10.8
2022-11-25T07:53:43.946Z,7.3
2022-11-25T07:54:52.272Z,7.3
2022-11-25T07:56:00.675Z,7.3
2022-11-25T07:57:09.235Z,9.2
2022-11-25T07:58:17.569Z,9.2
2022-11-25T07:59:25.935Z,9.2
2022-11-25T08:00:34.473Z,8.4
2022-11-25T08:01:42.871Z,8.4
2022-11-25T08:02:51.222Z,8.4
2022-11-25T08:03:59.736Z,7.1
2022-11-25T08:05:08.060Z,7.1
2022-11-25T08:06:16.421Z,7.1
2022-11-25T08:07:25.077Z,7.9
2022-11-25T08:08:33.271Z,7.9
2022-11-25T08:09:41.636Z,7.9
2022-11-25T08:10:50.181Z,8.1
2022-11-25T08:11:58.506Z,8.1
2022-11-25T08:13:06.889Z,8.1
2022-11-25T08:14:15.434Z,8.2
2022-11-25T08:15:23.795Z,8.2
2022-11-25T08:16:32.207Z,8.2
2022-11-25T08:17:40.693Z,10.1
2022-11-25T08:18:49.028Z,10.1
2022-11-25T08:19:57.377Z,10.1
2022-11-25T08:21:05.915Z,8
2022-11-25T08:22:14.308Z,8
2022-11-25T08:23:22.619Z,8
2022-11-25T08:24:31.156Z,6.6
2022-11-25T08:25:39.494Z,6.6
2022-11-25T08:26:47.829Z,6.6
2022-11-25T08:27:56.368Z,6.7
2022-11-25T08:29:04.718Z,6.7
2022-11-25T08:30:13.053Z,6.7
2022-11-25T08:31:21.620Z,9.2
2022-11-25T08:32:29.927Z,9.2
2022-11-25T08:33:38.261Z,9.2
2022-11-25T08:34:46.792Z,7.4
2022-11-25T08:35:55.131Z,7.4
2022-11-25T08:37:03.462Z,7.4
2022-11-25T08:38:12.022Z,6.9
2022-11-25T08:40:28.677Z,6.9
2022-11-25T08:41:37.235Z,6.8
2022-11-25T08:42:45.551Z,6.8
2022-11-25T08:43:53.888Z,6.8
2022-11-25T08:45:02.480Z,7.9
2022-11-25T08:46:10.885Z,7.9
2022-11-25T08:47:19.134Z,7.9
2022-11-25T08:48:27.698Z,7.4
2022-11-25T08:49:40.744Z,7.4
2022-11-25T08:50:44.370Z,7.4
2022-11-25T08:51:52.907Z,8.4
2022-11-25T08:53:01.251Z,8.4
2022-11-25T08:54:09.618Z,8.4
2022-11-25T08:55:18.132Z,6.9
2022-11-25T08:56:26.620Z,6.9
2022-11-25T08:57:34.804Z,6.9
2022-11-25T08:58:43.351Z,8.6
2022-11-25T08:59:51.681Z,8.6
2022-11-25T09:01:00.013Z,8.6
2022-11-25T09:02:08.631Z,8.3
2022-11-25T09:03:16.954Z,8.3
2022-11-25T09:04:25.248Z,8.3
2022-11-25T09:05:33.807Z,8.7
2022-11-25T09:06:42.123Z,8.7
2022-11-25T09:07:50.556Z,8.7
2022-11-25T09:08:59.032Z,7.4
2022-11-25T09:10:07.385Z,7.4
2022-11-25T09:11:15.750Z,7.4
2022-11-25T09:12:24.237Z,6.7
2022-11-25T09:13:32.597Z,6.7
2022-11-25T09:14:40.914Z,6.7
2022-11-25T09:15:49.486Z,6.8
2022-11-25T09:16:57.793Z,6.8
2022-11-25T09:18:06.155Z,6.8
2022-11-25T09:19:14.694Z,5.6
2022-11-25T09:20:23.042Z,5.6
2022-11-25T09:21:31.368Z,5.6
2022-11-25T09:22:39.936Z,6.7
2022-11-25T09:23:48.278Z,6.7
2022-11-25T09:24:56.605Z,6.7
2022-11-25T09:26:05.180Z,6.8
2022-11-25T09:27:13.503Z,6.8
2022-11-25T09:28:21.825Z,6.8
2022-11-25T09:29:30.375Z,5
2022-11-25T09:30:38.713Z,5
2022-11-25T09:31:51.441Z,5
2022-11-25T09:32:55.596Z,6.9
2022-11-25T09:34:03.955Z,6.9
2022-11-25T09:35:12.262Z,6.9
2022-11-25T09:36:20.825Z,7.8
2022-11-25T09:37:29.189Z,7.8
2022-11-25T09:38:41.657Z,7.8
2022-11-25T09:39:46.064Z,6.1
2022-11-25T09:40:54.390Z,6.1
2022-11-25T09:42:02.752Z,6.1
2022-11-25T09:43:11.283Z,6.2
2022-11-25T09:44:19.606Z,6.2
2022-11-25T09:45:27.943Z,6.2
2022-11-25T09:46:36.513Z,7.2
2022-11-25T09:47:47.704Z,7.2
2022-11-25T09:48:53.158Z,7.2
2022-11-25T09:50:01.706Z,8.1
2022-11-25T09:51:10.035Z,8.1
2022-11-25T09:52:18.377Z,8.1
2022-11-25T09:53:26.928Z,9.6
2022-11-25T09:54:35.265Z,9.6
2022-11-25T09:55:43.588Z,9.6
2022-11-25T09:56:52.150Z,9.3
2022-11-25T09:58:00.493Z,9.3
2022-11-25T09:59:08.805Z,9.3
2022-11-25T10:00:17.343Z,9.3
2022-11-25T10:01:25.677Z,9.3
2022-11-25T10:02:34.077Z,9.3
2022-11-25T10:03:42.624Z,7.3
2022-11-25T10:04:50.902Z,7.3
2022-11-25T10:05:59.253Z,7.3
2022-11-25T10:07:07.783Z,9.2
2022-11-25T10:08:16.147Z,9.2
2022-11-25T10:09:24.470Z,9.2
2022-11-25T10:10:33.020Z,8.7
2022-11-25T10:11:41.377Z,8.7
2022-11-25T10:12:49.705Z,8.7
2022-11-25T10:13:58.268Z,9.2
2022-11-25T10:15:06.583Z,9.2
2022-11-25T10:16:15.001Z,9.2
2022-11-25T10:17:23.471Z,8.9
2022-11-25T10:18:31.806Z,8.9
2022-11-25T10:19:40.158Z,8.9
2022-11-25T10:20:48.720Z,10.7
2022-11-25T10:21:57.045Z,10.7
2022-11-25T10:23:05.391Z,10.7
2022-11-25T10:24:13.941Z,9.9
2022-11-25T10:25:22.269Z,9.9
2022-11-25T10:26:30.603Z,9.9
2022-11-25T10:27:39.160Z,9.9
2022-11-25T10:28:47.479Z,9.9
2022-11-25T10:29:55.833Z,9.9
2022-11-25T10:31:04.379Z,10.3
2022-11-25T10:32:12.696Z,10.3
2022-11-25T10:33:21.114Z,10.3
2022-11-25T10:34:29.623Z,10.2
2022-11-25T10:35:37.975Z,10.2
2022-11-25T10:36:46.296Z,10.2
2022-11-25T10:37:54.853Z,10.2
2022-11-25T10:39:03.184Z,10.2
2022-11-25T10:40:11.504Z,10.2
2022-11-25T10:41:20.061Z,9.4
2022-11-25T10:42:28.409Z,9.4
2022-11-25T10:43:39.251Z,9.4
2022-11-25T10:44:47.799Z,10.4
2022-11-25T10:45:56.157Z,10.4
2022-11-25T10:47:13.808Z,10.4
2022-11-25T10:48:12.997Z,9.8
2022-11-25T10:49:21.333Z,9.8
2022-11-25T10:50:29.672Z,9.8
2022-11-25T10:51:38.209Z,9.4
2022-11-25T10:52:46.613Z,9.4
2022-11-25T10:53:54.937Z,9.4
2022-11-25T10:55:03.472Z,9.5
2022-11-25T10:56:11.815Z,9.5
2022-11-25T10:57:20.138Z,9.5
2022-11-25T10:58:28.729Z,10.7
2022-11-25T10:59:37.062Z,10.7
2022-11-25T11:00:45.389Z,10.7
2022-11-25T11:01:54.025Z,9.5
2022-11-25T11:03:02.346Z,9.5
2022-11-25T11:04:10.612Z,9.5
2022-11-25T11:05:19.146Z,10.3
2022-11-25T11:06:27.491Z,10.3
2022-11-25T11:07:35.899Z,10.3
2022-11-25T11:08:44.370Z,7.5
2022-11-25T11:09:52.692Z,7.5
2022-11-25T11:11:01.023Z,7.5
2022-11-25T11:12:09.564Z,9.1
2022-11-25T11:13:17.926Z,9.1
2022-11-25T11:14:26.250Z,9.1
2022-11-25T11:15:34.818Z,8.9
2022-11-25T11:16:43.242Z,8.9
2022-11-25T11:17:51.515Z,8.9
2022-11-25T11:19:00.044Z,9.9
2022-11-25T11:20:08.360Z,9.9
2022-11-25T11:21:16.702Z,9.9
2022-11-25T11:22:25.234Z,10.5
2022-11-25T11:23:33.573Z,10.5
2022-11-25T11:24:41.904Z,10.5
2022-11-25T11:25:50.452Z,11.4
2022-11-25T11:26:58.799Z,11.4
2022-11-25T11:28:07.128Z,11.4
2022-11-25T11:29:15.690Z,8.8
2022-11-25T11:30:24.012Z,8.8
2022-11-25T11:31:32.389Z,8.8
2022-11-25T11:32:40.946Z,9.6
2022-11-25T11:33:49.289Z,9.6
2022-11-25T11:34:57.600Z,9.6
2022-11-25T11:36:06.153Z,8.8
2022-11-25T11:37:14.480Z,8.8
2022-11-25T11:38:22.838Z,8.8
2022-11-25T11:39:31.374Z,9.2
2022-11-25T11:40:39.710Z,9.2
2022-11-25T11:41:48.076Z,9.2
2022-11-25T11:42:56.658Z,9.2
2022-11-25T11:44:04.972Z,9.2
2022-11-25T11:45:13.306Z,9.2
2022-11-25T11:46:21.868Z,8.2
2022-11-25T11:47:30.176Z,8.2
2022-11-25T11:48:38.520Z,8.2
2022-11-25T11:49:47.105Z,8.9
2022-11-25T11:50:55.376Z,8.9
2022-11-25T11:52:03.709Z,8.9
2022-11-25T11:53:12.249Z,7.8
2022-11-25T11:54:20.601Z,7.8
2022-11-25T11:55:28.935Z,7.8
2022-11-25T11:56:37.470Z,7.8
2022-11-25T11:57:45.813Z,7.8
2022-11-25T11:58:54.148Z,7.8
2022-11-25T12:00:02.683Z,9.8
2022-11-25T12:01:11.015Z,9.8
2022-11-25T12:02:19.438Z,9.8
2022-11-25T12:03:27.921Z,10.9
2022-11-25T12:04:36.480Z,10.9
2022-11-25T12:05:44.579Z,10.9
2022-11-25T12:06:53.078Z,12
2022-11-25T12:08:01.501Z,12
2022-11-25T12:09:09.756Z,12
2022-11-25T12:10:18.285Z,9.6
2022-11-25T12:11:26.621Z,9.6
2022-11-25T12:12:34.981Z,9.6
2022-11-25T12:13:43.508Z,8.9
2022-11-25T12:14:51.849Z,8.9
2022-11-25T12:16:00.257Z,8.9
2022-11-25T12:17:08.724Z,8.8
2022-11-25T12:18:17.057Z,8.8
2022-11-25T12:19:25.404Z,8.8
2022-11-25T12:20:33.944Z,8.3
2022-11-25T12:21:42.539Z,8.3
2022-11-25T12:22:50.620Z,8.3
2022-11-25T12:23:59.146Z,8.1
2022-11-25T12:25:07.490Z,8.1
2022-11-25T12:26:15.835Z,8.1
2022-11-25T12:27:24.368Z,7.9
2022-11-25T12:28:32.720Z,7.9
2022-11-25T12:29:41.047Z,7.9
2022-11-25T12:30:49.638Z,160.39999
2022-11-25T12:31:58.022Z,160.39999
2022-11-25T12:33:06.338Z,160.39999
2022-11-25T12:34:14.887Z,37.200001
2022-11-25T12:35:23.219Z,37.200001
2022-11-25T12:36:31.581Z,37.200001
2022-11-25T12:37:40.160Z,26.799999
2022-11-25T12:38:48.494Z,26.799999
2022-11-25T12:39:56.851Z,26.799999
2022-11-25T12:41:05.385Z,9.2
2022-11-25T12:42:13.752Z,9.2
2022-11-25T12:43:22.057Z,9.2
2022-11-25T12:44:30.629Z,10.9
2022-11-25T12:45:38.991Z,10.9
2022-11-25T12:46:47.309Z,10.9
2022-11-25T12:47:55.865Z,11.6
2022-11-25T12:49:04.207Z,11.6
2022-11-25T12:50:12.554Z,11.6
2022-11-25T12:51:21.088Z,9.4
2022-11-25T12:52:29.439Z,9.4
2022-11-25T12:53:37.800Z,9.4
2022-11-25T12:54:46.326Z,8.6
2022-11-25T12:55:54.698Z,8.6
2022-11-25T12:57:03.029Z,8.6
2022-11-25T12:58:11.619Z,9.8
2022-11-25T12:59:19.920Z,9.8
2022-11-25T13:00:43.775Z,9.8
2022-11-25T13:01:36.833Z,12.8
2022-11-25T13:02:45.217Z,12.8
2022-11-25T13:03:53.553Z,12.8
2022-11-25T13:05:18.781Z,7.1
2022-11-25T13:06:10.406Z,7.1
2022-11-25T13:07:18.800Z,7.1
2022-11-25T13:08:27.325Z,9.4
2022-11-25T13:09:35.703Z,9.4
2022-11-25T13:10:44.009Z,9.4
2022-11-25T13:11:52.902Z,7.2
2022-11-25T13:13:01.162Z,7.2
2022-11-25T13:14:09.516Z,7.2
2022-11-25T13:15:18.157Z,9
2022-11-25T13:16:26.616Z,9
2022-11-25T13:17:34.566Z,9
2022-11-25T13:18:43.065Z,8.1
2022-11-25T13:19:51.391Z,8.1
2022-11-25T13:20:59.732Z,8.1
2022-11-25T13:22:08.271Z,9.2
2022-11-25T13:23:16.627Z,9.2
2022-11-25T13:24:24.985Z,9.2
2022-11-25T13:25:33.526Z,7.4
2022-11-25T13:26:41.850Z,7.4
2022-11-25T13:27:50.203Z,7.4
2022-11-25T13:28:58.742Z,7.4
2022-11-25T13:30:07.087Z,7.4
2022-11-25T13:31:15.463Z,7.4
2022-11-25T13:32:23.978Z,7.5
2022-11-25T13:33:32.307Z,7.5
2022-11-25T13:34:40.658Z,7.5
2022-11-25T13:35:49.218Z,7.2
2022-11-25T13:36:57.556Z,7.2
2022-11-25T13:38:05.902Z,7.2
2022-11-25T13:39:14.458Z,7.2
2022-11-25T13:40:22.797Z,7.2
2022-11-25T13:41:31.152Z,7.2
2022-11-25T13:42:39.713Z,9.6
2022-11-25T13:43:48.038Z,9.6
2022-11-25T13:44:56.377Z,9.6
2022-11-25T13:46:04.955Z,8.9
2022-11-25T13:47:13.266Z,8.9
2022-11-25T13:48:21.631Z,8.9
2022-11-25T13:49:30.181Z,8.7
2022-11-25T13:51:03.221Z,8.7
2022-11-25T13:51:46.891Z,8.7
2022-11-25T13:52:55.448Z,8.2
2022-11-25T13:54:03.777Z,8.2
2022-11-25T13:55:12.139Z,8.2
2022-11-25T13:56:20.670Z,7.1
2022-11-25T13:57:29.081Z,7.1
2022-11-25T13:58:37.375Z,7.1
2022-11-25T13:59:45.914Z,7.6
2022-11-25T14:00:54.293Z,7.6
2022-11-25T14:02:02.740Z,7.6
2022-11-25T14:03:11.227Z,9.2
2022-11-25T14:04:19.533Z,9.2
2022-11-25T14:05:27.882Z,9.2
2022-11-25T14:06:36.427Z,9.6
2022-11-25T14:07:44.857Z,9.6
2022-11-25T14:08:53.147Z,9.6
2022-11-25T14:10:01.710Z,11.6
2022-11-25T14:11:10.066Z,11.6
2022-11-25T14:12:18.404Z,11.6
2022-11-25T14:13:26.977Z,13
2022-11-25T14:14:35.275Z,13
2022-11-25T14:15:43.641Z,13
2022-11-25T14:16:52.211Z,10.1
2022-11-25T14:18:00.557Z,10.1
2022-11-25T14:20:17.440Z,8.7
2022-11-25T14:21:25.790Z,8.7
2022-11-25T14:22:34.142Z,8.7
2022-11-25T14:23:42.706Z,8.9
2022-11-25T14:24:51.033Z,8.9
2022-11-25T14:25:59.404Z,8.9
2022-11-25T14:27:07.947Z,7.4
2022-11-25T14:28:16.299Z,7.4
2022-11-25T14:29:24.720Z,7.4
2022-11-25T14:30:33.189Z,8.3
2022-11-25T15:03:42.098Z,0
2022-11-25T15:04:50.376Z,0
2022-11-25T15:05:58.698Z,0
2022-11-25T15:07:07.298Z,9.5
2022-11-25T15:08:15.614Z,9.5
2022-11-25T15:09:23.978Z,9.5
2022-11-25T15:10:32.507Z,9.5
2022-11-25T15:11:40.857Z,9.5
2022-11-25T15:12:53.608Z,9.5
2022-11-25T15:13:57.733Z,14
2022-11-25T15:15:06.058Z,14
2022-11-25T15:16:14.472Z,14
2022-11-25T15:17:22.964Z,14.8
2022-11-25T15:18:31.327Z,14.8
2022-11-25T15:19:40.123Z,14.8
2022-11-25T15:20:48.223Z,11.8
2022-11-25T15:22:21.737Z,11.8
2022-11-25T15:23:04.889Z,11.8
2022-11-25T15:24:13.457Z,13.7
2022-11-25T15:25:21.798Z,13.7
2022-11-25T15:26:30.124Z,13.7
2022-11-25T15:27:38.689Z,12.1
2022-11-25T15:28:47.060Z,12.1
2022-11-25T15:29:55.404Z,12.1
2022-11-25T15:31:03.955Z,13.7
2022-11-25T15:32:12.332Z,13.7
2022-11-25T15:33:20.657Z,13.7
2022-11-25T15:34:29.202Z,14.3
2022-11-25T15:35:37.565Z,14.3
2022-11-25T15:36:49.751Z,14.3
2022-11-25T15:37:54.466Z,19
2022-11-25T15:39:02.760Z,19
2022-11-25T15:40:11.130Z,19
2022-11-25T15:41:19.655Z,33
2022-11-25T15:42:27.990Z,33
2022-11-25T15:43:36.337Z,33
2022-11-25T15:44:44.865Z,13.1
2022-11-25T15:45:53.239Z,13.1
2022-11-25T15:47:01.554Z,13.1
2022-11-25T15:48:10.105Z,17.299999
2022-11-25T15:49:18.437Z,17.299999
2022-11-25T15:50:26.785Z,17.299999
2022-11-25T15:51:35.354Z,20.6
2022-11-25T15:52:43.667Z,20.6
2022-11-25T15:53:52.027Z,20.6
2022-11-25T15:55:00.567Z,24.299999
2022-11-25T15:56:08.914Z,24.299999
2022-11-25T15:57:17.263Z,24.299999
2022-11-25T15:58:25.799Z,14.8
2022-11-25T15:59:34.504Z,14.8
2022-11-25T16:00:42.502Z,14.8
2022-11-25T16:01:51.070Z,17
2022-11-25T16:02:59.388Z,17
2022-11-25T16:04:07.735Z,17
2022-11-25T16:05:16.300Z,23.1